sensor_id;sensor_type;location;lat;lon;timestamp;temperature;humidity
20773;DHT22;10546;50.674;4.616;2024-03-25T06:25:39;5.90;99.90
20773;DHT22;10546;50.674;4.616;2024-03-25T06:28:05;5.90;99.90
20773;DHT22;10546;50.674;4.616;2024-03-25T06:30:30;5.90;99.90
20773;DHT22;10546;50.674;4.616;2024-03-25T06:33:14;5.90;99.90
20773;DHT22;10546;50.674;4.616;2024-03-25T06:35:59;5.90;99.90
20773;DHT22;10546;50.674;4.616;2024-03-25T06:38:24;6.00;99.90
20773;DHT22;10546;50.674;4.616;2024-03-25T06:40:50;6.20;99.90
20773;DHT22;10546;50.674;4.616;2024-03-25T06:43:17;6.60;99.90
20773;DHT22;10546;50.674;4.616;2024-03-25T06:45:44;6.70;99.90
20773;DHT22;10546;50.674;4.616;2024-03-25T06:48:10;6.90;99.90
20773;DHT22;10546;50.674;4.616;2024-03-25T06:50:35;6.90;99.90
20773;DHT22;10546;50.674;4.616;2024-03-25T06:53:02;7.00;99.90
20773;DHT22;10546;50.674;4.616;2024-03-25T06:55:27;7.00;99.90
20773;DHT22;10546;50.674;4.616;2024-03-25T06:57:54;7.10;99.90
20773;DHT22;10546;50.674;4.616;2024-03-25T07:00:20;7.10;99.90
20773;DHT22;10546;50.674;4.616;2024-03-25T07:02:48;7.10;99.90
20773;DHT22;10546;50.674;4.616;2024-03-25T07:05:14;7.10;99.90
20773;DHT22;10546;50.674;4.616;2024-03-25T07:07:40;7.00;99.90
20773;DHT22;10546;50.674;4.616;2024-03-25T07:10:06;7.10;99.90
20773;DHT22;10546;50.674;4.616;2024-03-25T07:12:32;7.20;99.90
20773;DHT22;10546;50.674;4.616;2024-03-25T07:14:57;7.30;99.90
20773;DHT22;10546;50.674;4.616;2024-03-25T07:17:23;7.20;99.90
20773;DHT22;10546;50.674;4.616;2024-03-25T07:19:49;7.30;99.90
20773;DHT22;10546;50.674;4.616;2024-03-25T07:22:14;7.20;99.90
20773;DHT22;10546;50.674;4.616;2024-03-25T07:24:40;7.30;99.90
20773;DHT22;10546;50.674;4.616;2024-03-25T07:27:06;7.20;99.90
20773;DHT22;10546;50.674;4.616;2024-03-25T07:29:33;7.10;99.90
20773;DHT22;10546;50.674;4.616;2024-03-25T07:31:58;7.40;99.90
20773;DHT22;10546;50.674;4.616;2024-03-25T07:34:24;7.60;99.90
20773;DHT22;10546;50.674;4.616;2024-03-25T07:36:49;7.90;99.90
20773;DHT22;10546;50.674;4.616;2024-03-25T07:39:16;8.00;99.90
20773;DHT22;10546;50.674;4.616;2024-03-25T07:41:41;8.30;99.90
20773;DHT22;10546;50.674;4.616;2024-03-25T07:44:07;8.50;99.90
20773;DHT22;10546;50.674;4.616;2024-03-25T07:46:32;8.70;99.90
20773;DHT22;10546;50.674;4.616;2024-03-25T07:48:58;9.00;99.90
20773;DHT22;10546;50.674;4.616;2024-03-25T07:51:24;9.00;99.90
20773;DHT22;10546;50.674;4.616;2024-03-25T07:53:49;9.30;99.90
20773;DHT22;10546;50.674;4.616;2024-03-25T07:56:15;9.40;99.90
20773;DHT22;10546;50.674;4.616;2024-03-25T07:58:41;9.70;99.90
20773;DHT22;10546;50.674;4.616;2024-03-25T08:01:07;10.00;99.90
20773;DHT22;10546;50.674;4.616;2024-03-25T08:03:33;10.20;99.90
20773;DHT22;10546;50.674;4.616;2024-03-25T08:05:59;10.80;99.90
20773;DHT22;10546;50.674;4.616;2024-03-25T08:08:25;10.80;99.90
20773;DHT22;10546;50.674;4.616;2024-03-25T08:10:50;11.20;99.90
20773;DHT22;10546;50.674;4.616;2024-03-25T08:13:18;10.90;99.90
20773;DHT22;10546;50.674;4.616;2024-03-25T08:15:45;11.10;99.90
20773;DHT22;10546;50.674;4.616;2024-03-25T08:18:11;11.30;99.90
20773;DHT22;10546;50.674;4.616;2024-03-25T08:20:37;11.50;99.90
20773;DHT22;10546;50.674;4.616;2024-03-25T08:23:03;11.70;99.90
20773;DHT22;10546;50.674;4.616;2024-03-25T08:25:29;11.40;99.90
20773;DHT22;10546;50.674;4.616;2024-03-25T08:27:54;11.30;99.90
20773;DHT22;10546;50.674;4.616;2024-03-25T08:30:20;11.40;99.90
20773;DHT22;10546;50.674;4.616;2024-03-25T08:32:46;11.10;99.90
20773;DHT22;10546;50.674;4.616;2024-03-25T08:35:11;10.90;99.90
20773;DHT22;10546;50.674;4.616;2024-03-25T08:37:38;10.90;99.90
20773;DHT22;10546;50.674;4.616;2024-03-25T08:40:04;11.00;99.90
20773;DHT22;10546;50.674;4.616;2024-03-25T08:42:30;11.50;99.90
20773;DHT22;10546;50.674;4.616;2024-03-25T08:44:56;11.70;99.90
20773;DHT22;10546;50.674;4.616;2024-03-25T08:47:21;12.00;99.90
20773;DHT22;10546;50.674;4.616;2024-03-25T08:49:47;12.40;99.90
20773;DHT22;10546;50.674;4.616;2024-03-25T08:52:12;12.50;99.90
20773;DHT22;10546;50.674;4.616;2024-03-25T08:54:38;12.60;99.90
20773;DHT22;10546;50.674;4.616;2024-03-25T08:57:04;13.00;99.90
20773;DHT22;10546;50.674;4.616;2024-03-25T08:59:30;13.70;99.90
20773;DHT22;10546;50.674;4.616;2024-03-25T09:01:55;14.80;99.90
20773;DHT22;10546;50.674;4.616;2024-03-25T09:04:21;14.90;99.90
20773;DHT22;10546;50.674;4.616;2024-03-25T09:06:46;14.80;99.90
20773;DHT22;10546;50.674;4.616;2024-03-25T09:09:13;14.80;99.90
20773;DHT22;10546;50.674;4.616;2024-03-25T09:11:57;14.70;99.90
20773;DHT22;10546;50.674;4.616;2024-03-25T09:14:22;14.30;99.90
20773;DHT22;10546;50.674;4.616;2024-03-25T09:16:48;14.30;99.90
20773;DHT22;10546;50.674;4.616;2024-03-25T09:19:14;14.30;99.90
20773;DHT22;10546;50.674;4.616;2024-03-25T09:21:39;14.50;99.90
20773;DHT22;10546;50.674;4.616;2024-03-25T09:24:05;15.10;99.90
20773;DHT22;10546;50.674;4.616;2024-03-25T09:26:31;15.00;99.90
20773;DHT22;10546;50.674;4.616;2024-03-25T09:28:56;14.60;99.90
20773;DHT22;10546;50.674;4.616;2024-03-25T09:31:22;13.70;99.90
20773;DHT22;10546;50.674;4.616;2024-03-25T09:33:48;13.80;99.90
20773;DHT22;10546;50.674;4.616;2024-03-25T09:36:13;14.20;99.90
20773;DHT22;10546;50.674;4.616;2024-03-25T09:38:40;14.60;99.90
20773;DHT22;10546;50.674;4.616;2024-03-25T09:41:08;14.80;99.90
20773;DHT22;10546;50.674;4.616;2024-03-25T09:46:07;15.90;99.90
20773;DHT22;10546;50.674;4.616;2024-03-25T09:48:33;16.40;99.90
20773;DHT22;10546;50.674;4.616;2024-03-25T09:51:00;17.30;99.90
20773;DHT22;10546;50.674;4.616;2024-03-25T09:53:27;17.70;99.90
20773;DHT22;10546;50.674;4.616;2024-03-25T09:55:55;17.00;99.90
20773;DHT22;10546;50.674;4.616;2024-03-25T09:58:22;17.50;99.90
20773;DHT22;10546;50.674;4.616;2024-03-25T10:00:49;18.00;99.90
20773;DHT22;10546;50.674;4.616;2024-03-25T10:03:15;18.60;99.90
20773;DHT22;10546;50.674;4.616;2024-03-25T10:05:41;19.10;99.90
20773;DHT22;10546;50.674;4.616;2024-03-25T10:08:07;19.70;99.90
20773;DHT22;10546;50.674;4.616;2024-03-25T10:10:36;19.20;99.90
20773;DHT22;10546;50.674;4.616;2024-03-25T10:13:05;19.40;99.90
20773;DHT22;10546;50.674;4.616;2024-03-25T10:15:31;19.30;99.90
20773;DHT22;10546;50.674;4.616;2024-03-25T10:17:57;19.50;99.90
20773;DHT22;10546;50.674;4.616;2024-03-25T10:20:24;19.90;99.90
20773;DHT22;10546;50.674;4.616;2024-03-25T10:22:51;20.20;99.90
20773;DHT22;10546;50.674;4.616;2024-03-25T10:25:27;20.70;99.90
20773;DHT22;10546;50.674;4.616;2024-03-25T10:27:54;19.80;99.90
20773;DHT22;10546;50.674;4.616;2024-03-25T10:30:20;20.50;99.90
20773;DHT22;10546;50.674;4.616;2024-03-25T10:32:46;20.60;99.90
20773;DHT22;10546;50.674;4.616;2024-03-25T10:35:23;20.70;99.90
20773;DHT22;10546;50.674;4.616;2024-03-25T10:37:49;21.10;99.90
20773;DHT22;10546;50.674;4.616;2024-03-25T10:40:15;20.90;99.90
20773;DHT22;10546;50.674;4.616;2024-03-25T10:42:42;20.60;99.90
20773;DHT22;10546;50.674;4.616;2024-03-25T10:45:10;20.80;99.90
20773;DHT22;10546;50.674;4.616;2024-03-25T10:47:36;20.60;99.90
20773;DHT22;10546;50.674;4.616;2024-03-25T10:50:08;20.10;99.90
20773;DHT22;10546;50.674;4.616;2024-03-25T10:52:36;19.50;99.90
20773;DHT22;10546;50.674;4.616;2024-03-25T10:55:03;19.30;99.90
20773;DHT22;10546;50.674;4.616;2024-03-25T10:57:29;19.50;99.90
20773;DHT22;10546;50.674;4.616;2024-03-25T10:59:57;19.40;99.90
20773;DHT22;10546;50.674;4.616;2024-03-25T11:02:23;19.30;99.90
20773;DHT22;10546;50.674;4.616;2024-03-25T11:04:50;19.50;99.90
20773;DHT22;10546;50.674;4.616;2024-03-25T11:07:17;19.60;99.90
20773;DHT22;10546;50.674;4.616;2024-03-25T11:09:43;19.00;99.90
20773;DHT22;10546;50.674;4.616;2024-03-25T11:12:12;18.40;99.90
20773;DHT22;10546;50.674;4.616;2024-03-25T11:14:39;18.80;99.90
20773;DHT22;10546;50.674;4.616;2024-03-25T11:17:14;18.60;99.90
20773;DHT22;10546;50.674;4.616;2024-03-25T11:19:41;17.70;99.90
20773;DHT22;10546;50.674;4.616;2024-03-25T11:22:08;17.50;99.90
20773;DHT22;10546;50.674;4.616;2024-03-25T11:24:35;17.80;99.90
20773;DHT22;10546;50.674;4.616;2024-03-25T11:27:07;18.30;99.90
20773;DHT22;10546;50.674;4.616;2024-03-25T11:29:34;17.70;99.90
20773;DHT22;10546;50.674;4.616;2024-03-25T11:32:03;17.50;99.90
20773;DHT22;10546;50.674;4.616;2024-03-25T11:34:29;17.40;99.90
20773;DHT22;10546;50.674;4.616;2024-03-25T11:36:55;17.50;99.90
20773;DHT22;10546;50.674;4.616;2024-03-25T11:39:26;16.90;99.90
20773;DHT22;10546;50.674;4.616;2024-03-25T11:41:53;16.40;99.90
20773;DHT22;10546;50.674;4.616;2024-03-25T11:44:19;16.60;99.90
20773;DHT22;10546;50.674;4.616;2024-03-25T11:46:46;16.50;99.90
20773;DHT22;10546;50.674;4.616;2024-03-25T11:49:15;16.90;99.90
20773;DHT22;10546;50.674;4.616;2024-03-25T11:51:43;17.00;99.90
20773;DHT22;10546;50.674;4.616;2024-03-25T11:54:12;16.70;99.90
20773;DHT22;10546;50.674;4.616;2024-03-25T11:56:37;16.40;99.90
20773;DHT22;10546;50.674;4.616;2024-03-25T11:59:03;16.20;99.90
20773;DHT22;10546;50.674;4.616;2024-03-25T12:01:32;16.40;99.90
20773;DHT22;10546;50.674;4.616;2024-03-25T12:03:57;16.50;99.90
20773;DHT22;10546;50.674;4.616;2024-03-25T12:06:33;16.60;99.90
20773;DHT22;10546;50.674;4.616;2024-03-25T12:08:59;16.90;99.90
20773;DHT22;10546;50.674;4.616;2024-03-25T12:11:43;16.40;99.90
20773;DHT22;10546;50.674;4.616;2024-03-25T12:14:09;16.20;99.90
20773;DHT22;10546;50.674;4.616;2024-03-25T12:16:34;16.20;99.90
20773;DHT22;10546;50.674;4.616;2024-03-25T12:19:00;16.20;99.90
20773;DHT22;10546;50.674;4.616;2024-03-25T12:21:26;16.10;99.90
20773;DHT22;10546;50.674;4.616;2024-03-25T12:23:53;16.20;99.90
20773;DHT22;10546;50.674;4.616;2024-03-25T12:26:19;16.20;99.90
20773;DHT22;10546;50.674;4.616;2024-03-25T12:28:45;16.00;99.90
20773;DHT22;10546;50.674;4.616;2024-03-25T12:31:11;16.30;99.90
20773;DHT22;10546;50.674;4.616;2024-03-25T12:33:41;16.40;99.90
20773;DHT22;10546;50.674;4.616;2024-03-25T12:36:07;16.30;99.90
20773;DHT22;10546;50.674;4.616;2024-03-25T12:38:33;16.20;99.90
20773;DHT22;10546;50.674;4.616;2024-03-25T12:41:12;16.20;99.90
20773;DHT22;10546;50.674;4.616;2024-03-25T12:43:44;15.80;99.90
20773;DHT22;10546;50.674;4.616;2024-03-25T12:46:11;15.90;99.90
20773;DHT22;10546;50.674;4.616;2024-03-25T12:48:37;16.30;99.90
20773;DHT22;10546;50.674;4.616;2024-03-25T12:51:03;16.50;99.90
20773;DHT22;10546;50.674;4.616;2024-03-25T12:53:29;16.50;99.90
20773;DHT22;10546;50.674;4.616;2024-03-25T12:55:54;16.60;99.90
20773;DHT22;10546;50.674;4.616;2024-03-25T12:58:20;16.60;99.90
20773;DHT22;10546;50.674;4.616;2024-03-25T13:00:46;16.40;99.90
20773;DHT22;10546;50.674;4.616;2024-03-25T13:03:12;16.40;99.90
20773;DHT22;10546;50.674;4.616;2024-03-25T13:05:38;15.80;99.90
20773;DHT22;10546;50.674;4.616;2024-03-25T13:08:04;15.40;99.90
20773;DHT22;10546;50.674;4.616;2024-03-25T13:10:30;14.90;99.90
20773;DHT22;10546;50.674;4.616;2024-03-25T13:12:56;15.00;99.90
20773;DHT22;10546;50.674;4.616;2024-03-25T13:15:22;15.10;99.90
20773;DHT22;10546;50.674;4.616;2024-03-25T13:17:48;15.00;99.90
20773;DHT22;10546;50.674;4.616;2024-03-25T13:20:14;15.50;99.90
20773;DHT22;10546;50.674;4.616;2024-03-25T13:22:40;15.70;99.90
20773;DHT22;10546;50.674;4.616;2024-03-25T13:25:06;15.50;99.90
20773;DHT22;10546;50.674;4.616;2024-03-25T13:27:32;15.60;99.90
20773;DHT22;10546;50.674;4.616;2024-03-25T13:29:58;15.30;99.90
20773;DHT22;10546;50.674;4.616;2024-03-25T13:32:24;15.20;99.90
20773;DHT22;10546;50.674;4.616;2024-03-25T13:34:50;15.30;99.90
20773;DHT22;10546;50.674;4.616;2024-03-25T13:37:16;15.40;99.90
20773;DHT22;10546;50.674;4.616;2024-03-25T13:39:41;15.20;99.90
20773;DHT22;10546;50.674;4.616;2024-03-25T13:42:07;14.80;99.90
20773;DHT22;10546;50.674;4.616;2024-03-25T13:44:33;14.60;99.90
20773;DHT22;10546;50.674;4.616;2024-03-25T13:46:58;14.40;99.90
20773;DHT22;10546;50.674;4.616;2024-03-25T13:49:24;14.50;99.90
20773;DHT22;10546;50.674;4.616;2024-03-25T13:51:56;14.70;99.90
20773;DHT22;10546;50.674;4.616;2024-03-25T13:54:24;14.80;99.90
20773;DHT22;10546;50.674;4.616;2024-03-25T13:56:51;14.70;99.90
20773;DHT22;10546;50.674;4.616;2024-03-25T13:59:16;14.40;99.90
20773;DHT22;10546;50.674;4.616;2024-03-25T14:01:42;14.50;99.90
20773;DHT22;10546;50.674;4.616;2024-03-25T14:04:08;14.40;99.90
20773;DHT22;10546;50.674;4.616;2024-03-25T14:06:33;14.40;99.90
20773;DHT22;10546;50.674;4.616;2024-03-25T14:09:02;14.30;99.90
20773;DHT22;10546;50.674;4.616;2024-03-25T14:11:30;14.00;99.90
20773;DHT22;10546;50.674;4.616;2024-03-25T14:13:56;13.70;99.90
20773;DHT22;10546;50.674;4.616;2024-03-25T14:16:21;13.70;99.90
20773;DHT22;10546;50.674;4.616;2024-03-25T14:18:47;13.90;99.90
20773;DHT22;10546;50.674;4.616;2024-03-25T14:21:13;13.80;99.90
20773;DHT22;10546;50.674;4.616;2024-03-25T14:23:38;14.00;99.90
20773;DHT22;10546;50.674;4.616;2024-03-25T14:26:12;14.00;99.90
20773;DHT22;10546;50.674;4.616;2024-03-25T14:28:38;14.00;99.90
20773;DHT22;10546;50.674;4.616;2024-03-25T14:31:04;14.00;99.90
20773;DHT22;10546;50.674;4.616;2024-03-25T14:33:29;13.90;99.90
20773;DHT22;10546;50.674;4.616;2024-03-25T14:35:55;14.00;99.90
20773;DHT22;10546;50.674;4.616;2024-03-25T14:38:21;14.00;99.90
20773;DHT22;10546;50.674;4.616;2024-03-25T14:40:47;14.00;99.90
20773;DHT22;10546;50.674;4.616;2024-03-25T14:43:12;14.10;99.90
20773;DHT22;10546;50.674;4.616;2024-03-25T14:45:38;13.90;99.90
20773;DHT22;10546;50.674;4.616;2024-03-25T14:48:04;13.80;99.90
20773;DHT22;10546;50.674;4.616;2024-03-25T14:50:30;13.70;99.90
20773;DHT22;10546;50.674;4.616;2024-03-25T14:52:55;13.80;99.90
20773;DHT22;10546;50.674;4.616;2024-03-25T14:55:21;13.90;99.90
20773;DHT22;10546;50.674;4.616;2024-03-25T14:57:47;13.80;99.90
20773;DHT22;10546;50.674;4.616;2024-03-25T15:00:13;13.80;99.90
20773;DHT22;10546;50.674;4.616;2024-03-25T15:02:39;13.80;99.90
20773;DHT22;10546;50.674;4.616;2024-03-25T15:05:05;14.00;99.90
20773;DHT22;10546;50.674;4.616;2024-03-25T15:07:31;14.10;99.90
20773;DHT22;10546;50.674;4.616;2024-03-25T15:09:56;14.30;99.90
20773;DHT22;10546;50.674;4.616;2024-03-25T15:12:22;13.90;99.90
20773;DHT22;10546;50.674;4.616;2024-03-25T15:14:49;13.90;99.90
20773;DHT22;10546;50.674;4.616;2024-03-25T15:17:15;13.90;99.90
20773;DHT22;10546;50.674;4.616;2024-03-25T15:19:40;13.70;99.90
20773;DHT22;10546;50.674;4.616;2024-03-25T15:22:06;13.70;99.90
20773;DHT22;10546;50.674;4.616;2024-03-25T15:24:32;13.70;99.90
20773;DHT22;10546;50.674;4.616;2024-03-25T15:26:57;13.70;99.90
20773;DHT22;10546;50.674;4.616;2024-03-25T15:29:23;13.70;99.90
20773;DHT22;10546;50.674;4.616;2024-03-25T15:31:48;13.60;99.90
20773;DHT22;10546;50.674;4.616;2024-03-25T15:34:14;13.60;99.90
20773;DHT22;10546;50.674;4.616;2024-03-25T15:36:40;13.60;99.90
20773;DHT22;10546;50.674;4.616;2024-03-25T15:39:07;13.60;99.90
20773;DHT22;10546;50.674;4.616;2024-03-25T15:41:32;13.70;99.90
20773;DHT22;10546;50.674;4.616;2024-03-25T15:43:58;13.70;99.90
20773;DHT22;10546;50.674;4.616;2024-03-25T15:46:23;13.50;99.90
20773;DHT22;10546;50.674;4.616;2024-03-25T15:48:49;13.50;99.90
20773;DHT22;10546;50.674;4.616;2024-03-25T15:51:15;13.60;99.90
20773;DHT22;10546;50.674;4.616;2024-03-25T15:53:42;13.60;99.90
20773;DHT22;10546;50.674;4.616;2024-03-25T15:56:07;13.70;99.90
20773;DHT22;10546;50.674;4.616;2024-03-25T15:58:33;13.60;99.90
20773;DHT22;10546;50.674;4.616;2024-03-25T16:00:59;13.50;99.90
20773;DHT22;10546;50.674;4.616;2024-03-25T16:03:25;13.20;99.90
20773;DHT22;10546;50.674;4.616;2024-03-25T16:05:51;13.20;99.90
20773;DHT22;10546;50.674;4.616;2024-03-25T16:08:17;13.00;99.90
20773;DHT22;10546;50.674;4.616;2024-03-25T16:10:42;13.00;99.90
20773;DHT22;10546;50.674;4.616;2024-03-25T16:13:08;13.10;99.90
20773;DHT22;10546;50.674;4.616;2024-03-25T16:15:34;13.00;99.90
20773;DHT22;10546;50.674;4.616;2024-03-25T16:18:00;13.00;99.90
20773;DHT22;10546;50.674;4.616;2024-03-25T16:20:33;12.90;99.90
20773;DHT22;10546;50.674;4.616;2024-03-25T16:22:59;12.70;99.90
20773;DHT22;10546;50.674;4.616;2024-03-25T16:25:27;12.60;99.90
20773;DHT22;10546;50.674;4.616;2024-03-25T16:27:53;12.80;99.90
20773;DHT22;10546;50.674;4.616;2024-03-25T16:30:19;12.80;99.90
20773;DHT22;10546;50.674;4.616;2024-03-25T16:32:45;12.80;99.90
20773;DHT22;10546;50.674;4.616;2024-03-25T16:35:11;12.70;99.90
20773;DHT22;10546;50.674;4.616;2024-03-25T16:37:37;12.60;99.90
20773;DHT22;10546;50.674;4.616;2024-03-25T16:40:03;12.50;99.90
20773;DHT22;10546;50.674;4.616;2024-03-25T16:42:31;12.20;99.90
20773;DHT22;10546;50.674;4.616;2024-03-25T16:44:57;12.20;99.90
20773;DHT22;10546;50.674;4.616;2024-03-25T16:47:25;12.00;99.90
20773;DHT22;10546;50.674;4.616;2024-03-25T16:49:51;12.10;99.90
20773;DHT22;10546;50.674;4.616;2024-03-25T16:52:16;12.20;99.90
20773;DHT22;10546;50.674;4.616;2024-03-25T16:54:42;12.40;99.90
20773;DHT22;10546;50.674;4.616;2024-03-25T16:57:07;12.40;99.90
20773;DHT22;10546;50.674;4.616;2024-03-25T16:59:33;12.50;99.90
20773;DHT22;10546;50.674;4.616;2024-03-25T17:01:59;12.30;99.90
20773;DHT22;10546;50.674;4.616;2024-03-25T17:04:24;12.20;99.90
20773;DHT22;10546;50.674;4.616;2024-03-25T17:06:50;12.10;99.90
20773;DHT22;10546;50.674;4.616;2024-03-25T17:09:16;12.00;99.90
20773;DHT22;10546;50.674;4.616;2024-03-25T17:11:44;11.90;99.90
20773;DHT22;10546;50.674;4.616;2024-03-25T17:14:10;11.90;99.90
20773;DHT22;10546;50.674;4.616;2024-03-25T17:16:36;11.90;99.90
20773;DHT22;10546;50.674;4.616;2024-03-25T17:19:02;11.90;99.90
20773;DHT22;10546;50.674;4.616;2024-03-25T17:21:28;11.90;99.90
20773;DHT22;10546;50.674;4.616;2024-03-25T17:23:54;11.70;99.90
20773;DHT22;10546;50.674;4.616;2024-03-25T17:26:20;11.60;99.90
20773;DHT22;10546;50.674;4.616;2024-03-25T17:28:46;11.70;99.90
20773;DHT22;10546;50.674;4.616;2024-03-25T17:31:12;11.70;99.90
20773;DHT22;10546;50.674;4.616;2024-03-25T17:33:39;11.60;99.90
20773;DHT22;10546;50.674;4.616;2024-03-25T17:36:05;11.50;99.90
20773;DHT22;10546;50.674;4.616;2024-03-25T17:38:31;11.50;99.90
20773;DHT22;10546;50.674;4.616;2024-03-25T17:40:57;11.40;99.90
20773;DHT22;10546;50.674;4.616;2024-03-25T17:43:23;11.20;99.90
20773;DHT22;10546;50.674;4.616;2024-03-25T17:45:49;11.00;99.90
20773;DHT22;10546;50.674;4.616;2024-03-25T17:48:15;11.10;99.90
20773;DHT22;10546;50.674;4.616;2024-03-25T17:50:40;11.20;99.90
20773;DHT22;10546;50.674;4.616;2024-03-25T17:53:07;11.10;99.90
20773;DHT22;10546;50.674;4.616;2024-03-25T17:55:32;11.00;99.90
20773;DHT22;10546;50.674;4.616;2024-03-25T17:57:58;11.00;99.90
20773;DHT22;10546;50.674;4.616;2024-03-25T18:00:23;11.00;99.90
20773;DHT22;10546;50.674;4.616;2024-03-25T18:02:49;11.10;99.90
20773;DHT22;10546;50.674;4.616;2024-03-25T18:05:21;11.10;99.90
20773;DHT22;10546;50.674;4.616;2024-03-25T18:07:47;11.00;99.90
20773;DHT22;10546;50.674;4.616;2024-03-25T18:10:16;10.90;99.90
20773;DHT22;10546;50.674;4.616;2024-03-25T18:12:41;10.70;99.90
20773;DHT22;10546;50.674;4.616;2024-03-25T18:15:07;10.60;99.90
20773;DHT22;10546;50.674;4.616;2024-03-25T18:17:33;10.60;99.90
20773;DHT22;10546;50.674;4.616;2024-03-25T18:19:59;10.80;99.90
20773;DHT22;10546;50.674;4.616;2024-03-25T18:22:24;10.70;99.90
20773;DHT22;10546;50.674;4.616;2024-03-25T18:24:50;10.60;99.90
20773;DHT22;10546;50.674;4.616;2024-03-25T18:27:16;10.70;99.90
20773;DHT22;10546;50.674;4.616;2024-03-25T18:29:42;10.60;99.90
20773;DHT22;10546;50.674;4.616;2024-03-25T18:32:07;10.50;99.90
20773;DHT22;10546;50.674;4.616;2024-03-25T18:34:34;10.60;99.90
20773;DHT22;10546;50.674;4.616;2024-03-25T18:37:01;10.50;99.90
20773;DHT22;10546;50.674;4.616;2024-03-25T18:39:26;10.30;99.90
20773;DHT22;10546;50.674;4.616;2024-03-25T18:41:52;10.10;99.90
20773;DHT22;10546;50.674;4.616;2024-03-25T18:44:17;10.10;99.90
20773;DHT22;10546;50.674;4.616;2024-03-25T18:46:43;10.10;99.90
20773;DHT22;10546;50.674;4.616;2024-03-25T18:49:10;9.90;99.90
20773;DHT22;10546;50.674;4.616;2024-03-25T18:51:35;10.00;99.90
20773;DHT22;10546;50.674;4.616;2024-03-25T18:54:01;9.90;99.90
20773;DHT22;10546;50.674;4.616;2024-03-25T18:56:27;9.70;99.90
20773;DHT22;10546;50.674;4.616;2024-03-25T18:58:52;9.50;99.90
20773;DHT22;10546;50.674;4.616;2024-03-25T19:01:18;9.50;99.90
20773;DHT22;10546;50.674;4.616;2024-03-25T19:03:45;9.50;99.90
20773;DHT22;10546;50.674;4.616;2024-03-25T19:06:11;9.60;99.90
20773;DHT22;10546;50.674;4.616;2024-03-25T19:08:37;9.50;99.90
20773;DHT22;10546;50.674;4.616;2024-03-25T19:11:03;9.50;99.90
20773;DHT22;10546;50.674;4.616;2024-03-25T19:13:29;9.50;99.90
20773;DHT22;10546;50.674;4.616;2024-03-25T19:15:55;9.50;99.90
20773;DHT22;10546;50.674;4.616;2024-03-25T19:18:20;9.40;99.90
20773;DHT22;10546;50.674;4.616;2024-03-25T19:20:46;9.40;99.90
20773;DHT22;10546;50.674;4.616;2024-03-25T19:23:11;9.40;99.90
20773;DHT22;10546;50.674;4.616;2024-03-25T19:25:37;9.30;99.90
20773;DHT22;10546;50.674;4.616;2024-03-25T19:28:03;9.30;99.90
20773;DHT22;10546;50.674;4.616;2024-03-25T19:30:29;9.20;99.90
20773;DHT22;10546;50.674;4.616;2024-03-25T19:32:54;9.20;99.90
20773;DHT22;10546;50.674;4.616;2024-03-25T19:35:21;9.10;99.90
20773;DHT22;10546;50.674;4.616;2024-03-25T19:37:46;9.10;99.90
20773;DHT22;10546;50.674;4.616;2024-03-25T19:40:13;9.20;99.90
20773;DHT22;10546;50.674;4.616;2024-03-25T19:42:38;9.10;99.90
20773;DHT22;10546;50.674;4.616;2024-03-25T19:45:05;8.90;99.90
20773;DHT22;10546;50.674;4.616;2024-03-25T19:47:31;8.80;99.90
20773;DHT22;10546;50.674;4.616;2024-03-25T19:49:56;8.80;99.90
20773;DHT22;10546;50.674;4.616;2024-03-25T19:52:23;8.70;99.90
20773;DHT22;10546;50.674;4.616;2024-03-25T19:54:50;8.70;99.90
20773;DHT22;10546;50.674;4.616;2024-03-25T19:57:16;8.70;99.90
20773;DHT22;10546;50.674;4.616;2024-03-25T19:59:43;8.70;99.90
20773;DHT22;10546;50.674;4.616;2024-03-25T20:02:08;8.70;99.90
20773;DHT22;10546;50.674;4.616;2024-03-25T20:04:34;8.70;99.90
20773;DHT22;10546;50.674;4.616;2024-03-25T20:07:00;8.70;99.90
20773;DHT22;10546;50.674;4.616;2024-03-25T20:09:25;8.70;99.90
20773;DHT22;10546;50.674;4.616;2024-03-25T20:11:51;8.70;99.90
20773;DHT22;10546;50.674;4.616;2024-03-25T20:14:17;8.70;99.90
20773;DHT22;10546;50.674;4.616;2024-03-25T20:16:43;8.60;99.90
20773;DHT22;10546;50.674;4.616;2024-03-25T20:19:09;8.70;99.90
20773;DHT22;10546;50.674;4.616;2024-03-25T20:21:36;8.60;99.90
20773;DHT22;10546;50.674;4.616;2024-03-25T20:24:01;8.60;99.90
20773;DHT22;10546;50.674;4.616;2024-03-25T20:26:27;8.60;99.90
20773;DHT22;10546;50.674;4.616;2024-03-25T20:28:53;8.60;99.90
20773;DHT22;10546;50.674;4.616;2024-03-25T20:31:19;8.70;99.90
20773;DHT22;10546;50.674;4.616;2024-03-25T20:33:44;8.70;99.90
20773;DHT22;10546;50.674;4.616;2024-03-25T20:36:10;8.60;99.90
20773;DHT22;10546;50.674;4.616;2024-03-25T20:38:35;8.50;99.90
20773;DHT22;10546;50.674;4.616;2024-03-25T20:41:01;8.50;99.90
20773;DHT22;10546;50.674;4.616;2024-03-25T20:43:27;8.60;99.90
20773;DHT22;10546;50.674;4.616;2024-03-25T20:45:52;8.40;99.90
20773;DHT22;10546;50.674;4.616;2024-03-25T20:48:18;8.40;99.90
20773;DHT22;10546;50.674;4.616;2024-03-25T20:50:43;8.30;99.90
20773;DHT22;10546;50.674;4.616;2024-03-25T20:53:09;8.30;99.90
20773;DHT22;10546;50.674;4.616;2024-03-25T20:55:35;8.30;99.90
20773;DHT22;10546;50.674;4.616;2024-03-25T20:58:00;8.30;99.90
20773;DHT22;10546;50.674;4.616;2024-03-25T21:00:26;8.30;99.90
20773;DHT22;10546;50.674;4.616;2024-03-25T21:02:52;8.30;99.90
20773;DHT22;10546;50.674;4.616;2024-03-25T21:05:17;8.40;99.90
20773;DHT22;10546;50.674;4.616;2024-03-25T21:07:43;8.30;99.90
20773;DHT22;10546;50.674;4.616;2024-03-25T21:10:08;8.50;99.90
20773;DHT22;10546;50.674;4.616;2024-03-25T21:12:35;8.50;99.90
20773;DHT22;10546;50.674;4.616;2024-03-25T21:15:00;8.60;99.90
20773;DHT22;10546;50.674;4.616;2024-03-25T21:17:26;8.50;99.90
20773;DHT22;10546;50.674;4.616;2024-03-25T21:19:52;8.40;99.90
20773;DHT22;10546;50.674;4.616;2024-03-25T21:22:18;8.40;99.90
20773;DHT22;10546;50.674;4.616;2024-03-25T21:24:43;8.40;99.90
20773;DHT22;10546;50.674;4.616;2024-03-25T21:27:10;8.50;99.90
20773;DHT22;10546;50.674;4.616;2024-03-25T21:29:35;8.50;99.90
20773;DHT22;10546;50.674;4.616;2024-03-25T21:32:01;8.50;99.90
20773;DHT22;10546;50.674;4.616;2024-03-25T21:34:26;8.50;99.90
20773;DHT22;10546;50.674;4.616;2024-03-25T21:36:53;8.30;99.90
